Airfield :
LOGIN :

Register | Disclaimer

   EN    FR    IT 

 










Legend :    VFR   Marginal VFR   IFR   Intensive IFR   Very Intensive IFR
Visi :
Ceiling :
>= 8 km
>= 3000ft
5 to 8 km
1000 to 3000 ft
1500m to 5 km
500 to 1000 ft
800 to 1500m
200 to 500 ft
< 800m
< 200 ft
Symbols :   Thunderstorms  Fog  Heavy snow  Heavy precipitations  Wind > 20 kt
SIGMETs :     Misc.  Thunderstorms  Icing  Turbulence  Mountain Waves  Volcanic Ashes







- Airport Elevation : 146 ft
- IATA code : RKE


EKRK - Roskilde Tune

CURRENT METAR :
  • 141450Z AUTO 33011KT 290V350 9999NDV FEW018/// SCT037/// BKN070/// 21/16 Q1007

EXPIRED METARs :
  • 141420Z AUTO 34012KT 9999NDV FEW016/// SCT026/// BKN039/// BKN085/// 20/17 Q1007
  • 141350Z AUTO 32010KT 280V350 9999NDV FEW023/// BKN075/// 22/16 Q1006
  • 141320Z AUTO 32011KT 9999NDV FEW029/// SCT080/// 22/16 Q1006
  • 141250Z AUTO 31009KT 270V340 9999NDV FEW026/// SCT035/// BKN075/// 22/15 Q1006
  • 141220Z AUTO 31008KT 270V340 9999NDV FEW023/// SCT045/// BKN070/// BKN090/// 23/16 Q1006

TAF TAF EKRK
Valid from the 14 at 15:00 until the 15 at 00:00 UTC


141418Z 1415/1424 31012KT 9999 SCT025
TEMPO 1415/1421 -SHRA SCT020CB
TEMPO 1421/1424 BKN012
No reported NOTAMs for that airfield.



MET'MAP, your aeronautical weather chart ! - Copyright ORBIFLY December 2007 - Disclaimer

ORBIFLY MET'MAP TEAM :

Programming & Development : Alexandra Zaïnal
Concept & Development : Baudouin d'Aumeries
Co-Development & Prog : Marc-Olivier Méhu
Technical & hardware support : Manuel Goepfert

Contact : metmap@orbifly.com




SOURCES & CREDITS :

   NOAA